sensor_id;sensor_type;location;lat;lon;timestamp;pressure;altitude;pressure_sealevel;temperature;humidity
7200;BME280;3641;49.082;8.200;2023-01-28T00:01:16;101131.50;;;2.05;84.01
7200;BME280;3641;49.082;8.200;2023-01-28T00:03:48;101128.69;;;2.07;83.85
7200;BME280;3641;49.082;8.200;2023-01-28T00:06:15;101122.34;;;2.08;83.77
7200;BME280;3641;49.082;8.200;2023-01-28T00:08:42;101123.25;;;1.95;84.00
7200;BME280;3641;49.082;8.200;2023-01-28T00:11:10;101113.97;;;1.99;84.26
7200;BME280;3641;49.082;8.200;2023-01-28T00:13:37;101110.81;;;2.06;84.15
7200;BME280;3641;49.082;8.200;2023-01-28T00:16:05;101110.06;;;2.04;84.08
7200;BME280;3641;49.082;8.200;2023-01-28T00:18:33;101109.22;;;2.03;84.13
7200;BME280;3641;49.082;8.200;2023-01-28T00:21:06;101103.50;;;2.08;83.87
7200;BME280;3641;49.082;8.200;2023-01-28T00:23:35;101107.63;;;1.88;84.82
7200;BME280;3641;49.082;8.200;2023-01-28T00:26:04;101108.38;;;1.90;84.95
7200;BME280;3641;49.082;8.200;2023-01-28T00:28:31;101108.47;;;1.88;85.15
7200;BME280;3641;49.082;8.200;2023-01-28T00:30:57;101103.88;;;1.90;84.94
7200;BME280;3641;49.082;8.200;2023-01-28T00:33:24;101103.09;;;1.88;84.69
7200;BME280;3641;49.082;8.200;2023-01-28T00:35:56;101103.19;;;1.87;84.91
7200;BME280;3641;49.082;8.200;2023-01-28T00:38:24;101105.34;;;1.94;85.14
7200;BME280;3641;49.082;8.200;2023-01-28T00:40:51;101102.00;;;2.04;84.71
7200;BME280;3641;49.082;8.200;2023-01-28T00:43:17;101105.53;;;2.04;84.56
7200;BME280;3641;49.082;8.200;2023-01-28T00:45:44;101105.91;;;1.99;84.87
7200;BME280;3641;49.082;8.200;2023-01-28T00:48:11;101109.03;;;1.93;85.43
7200;BME280;3641;49.082;8.200;2023-01-28T00:50:37;101096.13;;;1.86;85.65
7200;BME280;3641;49.082;8.200;2023-01-28T00:53:04;101105.69;;;1.90;85.86
7200;BME280;3641;49.082;8.200;2023-01-28T00:55:32;101109.34;;;2.02;85.19
7200;BME280;3641;49.082;8.200;2023-01-28T00:57:58;101110.81;;;2.06;85.21
7200;BME280;3641;49.082;8.200;2023-01-28T01:00:25;101119.78;;;2.06;85.32
7200;BME280;3641;49.082;8.200;2023-01-28T01:02:51;101112.03;;;2.02;85.18
7200;BME280;3641;49.082;8.200;2023-01-28T01:05:18;101105.22;;;2.09;85.15
7200;BME280;3641;49.082;8.200;2023-01-28T01:07:44;101119.00;;;2.04;85.28
7200;BME280;3641;49.082;8.200;2023-01-28T01:10:13;101111.59;;;2.08;84.95
7200;BME280;3641;49.082;8.200;2023-01-28T01:12:41;101101.34;;;2.13;84.50
7200;BME280;3641;49.082;8.200;2023-01-28T01:15:09;101106.75;;;2.00;85.39
7200;BME280;3641;49.082;8.200;2023-01-28T01:17:36;101105.97;;;2.11;84.98
7200;BME280;3641;49.082;8.200;2023-01-28T01:20:03;101100.81;;;2.08;85.27
7200;BME280;3641;49.082;8.200;2023-01-28T01:22:32;101107.59;;;2.00;85.69
7200;BME280;3641;49.082;8.200;2023-01-28T01:24:58;101115.75;;;2.12;84.89
7200;BME280;3641;49.082;8.200;2023-01-28T01:27:25;101119.78;;;2.06;85.45
7200;BME280;3641;49.082;8.200;2023-01-28T01:29:52;101107.78;;;2.10;85.06
7200;BME280;3641;49.082;8.200;2023-01-28T01:32:19;101106.81;;;2.11;85.53
7200;BME280;3641;49.082;8.200;2023-01-28T01:34:46;101116.75;;;2.11;85.92
7200;BME280;3641;49.082;8.200;2023-01-28T01:37:13;101120.84;;;2.04;87.15
7200;BME280;3641;49.082;8.200;2023-01-28T01:39:40;101117.09;;;2.06;86.68
7200;BME280;3641;49.082;8.200;2023-01-28T01:42:09;101111.03;;;2.15;85.70
7200;BME280;3641;49.082;8.200;2023-01-28T01:44:55;101117.16;;;2.17;85.58
7200;BME280;3641;49.082;8.200;2023-01-28T01:47:24;101125.34;;;2.16;86.35
7200;BME280;3641;49.082;8.200;2023-01-28T01:49:53;101117.16;;;2.17;85.99
7200;BME280;3641;49.082;8.200;2023-01-28T01:52:23;101126.94;;;2.18;86.01
7200;BME280;3641;49.082;8.200;2023-01-28T01:54:55;101112.03;;;2.02;88.42
7200;BME280;3641;49.082;8.200;2023-01-28T01:57:26;101120.09;;;2.02;88.27
7200;BME280;3641;49.082;8.200;2023-01-28T01:59:55;101123.22;;;2.08;88.75
7200;BME280;3641;49.082;8.200;2023-01-28T02:02:31;101119.03;;;1.91;89.50
7200;BME280;3641;49.082;8.200;2023-01-28T02:04:59;101116.00;;;1.96;89.02
7200;BME280;3641;49.082;8.200;2023-01-28T02:07:26;101110.94;;;2.04;88.03
7200;BME280;3641;49.082;8.200;2023-01-28T02:09:53;101113.09;;;1.99;89.05
7200;BME280;3641;49.082;8.200;2023-01-28T02:12:22;101107.28;;;2.05;88.70
7200;BME280;3641;49.082;8.200;2023-01-28T02:14:52;101118.25;;;2.02;88.86
7200;BME280;3641;49.082;8.200;2023-01-28T02:17:21;101117.75;;;1.97;89.71
7200;BME280;3641;49.082;8.200;2023-01-28T02:19:53;101114.53;;;1.92;90.00
7200;BME280;3641;49.082;8.200;2023-01-28T02:25:33;101116.41;;;2.03;89.31
7200;BME280;3641;49.082;8.200;2023-01-28T02:28:12;101121.06;;;2.00;90.04
7200;BME280;3641;49.082;8.200;2023-01-28T02:30:50;101114.72;;;2.02;89.25
7200;BME280;3641;49.082;8.200;2023-01-28T02:33:24;101118.44;;;2.12;88.77
7200;BME280;3641;49.082;8.200;2023-01-28T02:35:53;101107.47;;;2.15;89.10
7200;BME280;3641;49.082;8.200;2023-01-28T02:38:25;101102.28;;;2.12;89.13
7200;BME280;3641;49.082;8.200;2023-01-28T02:40:57;101111.88;;;2.16;88.38
7200;BME280;3641;49.082;8.200;2023-01-28T02:43:37;101106.31;;;2.06;89.73
7200;BME280;3641;49.082;8.200;2023-01-28T02:46:12;101113.63;;;2.04;90.27
7200;BME280;3641;49.082;8.200;2023-01-28T02:48:59;101104.22;;;2.23;88.38
7200;BME280;3641;49.082;8.200;2023-01-28T02:51:34;101106.75;;;2.00;90.26
7200;BME280;3641;49.082;8.200;2023-01-28T02:54:10;101102.75;;;2.06;90.04
7200;BME280;3641;49.082;8.200;2023-01-28T02:56:42;101113.00;;;2.00;90.46
7200;BME280;3641;49.082;8.200;2023-01-28T02:59:13;101115.75;;;2.12;89.18
7200;BME280;3641;49.082;8.200;2023-01-28T03:02:02;101115.88;;;2.10;89.72
7200;BME280;3641;49.082;8.200;2023-01-28T03:04:37;101122.69;;;2.03;90.41
7200;BME280;3641;49.082;8.200;2023-01-28T03:07:08;101115.13;;;2.08;89.97
7200;BME280;3641;49.082;8.200;2023-01-28T03:09:37;101122.59;;;1.92;91.32
7200;BME280;3641;49.082;8.200;2023-01-28T03:12:06;101117.31;;;1.90;91.24
7200;BME280;3641;49.082;8.200;2023-01-28T03:14:55;101122.78;;;2.02;90.11
7200;BME280;3641;49.082;8.200;2023-01-28T03:17:43;101115.50;;;1.91;91.24
7200;BME280;3641;49.082;8.200;2023-01-28T03:20:34;101121.50;;;1.94;91.01
7200;BME280;3641;49.082;8.200;2023-01-28T03:23:22;101113.88;;;2.01;91.36
7200;BME280;3641;49.082;8.200;2023-01-28T03:26:10;101115.25;;;2.07;90.54
7200;BME280;3641;49.082;8.200;2023-01-28T03:29:00;101116.88;;;1.96;90.78
7200;BME280;3641;49.082;8.200;2023-01-28T03:31:50;101119.66;;;2.08;89.80
7200;BME280;3641;49.082;8.200;2023-01-28T03:34:35;101123.53;;;2.04;89.71
7200;BME280;3641;49.082;8.200;2023-01-28T03:37:21;101127.31;;;1.88;91.04
7200;BME280;3641;49.082;8.200;2023-01-28T03:39:47;101129.81;;;1.66;92.03
7200;BME280;3641;49.082;8.200;2023-01-28T03:42:14;101135.19;;;1.91;90.81
7200;BME280;3641;49.082;8.200;2023-01-28T03:44:43;101138.56;;;1.82;91.88
7200;BME280;3641;49.082;8.200;2023-01-28T03:47:17;101129.19;;;1.75;92.39
7200;BME280;3641;49.082;8.200;2023-01-28T03:49:45;101133.81;;;1.86;91.19
7200;BME280;3641;49.082;8.200;2023-01-28T03:52:14;101135.41;;;1.75;91.19
7200;BME280;3641;49.082;8.200;2023-01-28T03:54:41;101134.88;;;1.70;91.89
7200;BME280;3641;49.082;8.200;2023-01-28T03:57:08;101136.50;;;1.73;92.32
7200;BME280;3641;49.082;8.200;2023-01-28T03:59:35;101141.47;;;1.79;91.32
7200;BME280;3641;49.082;8.200;2023-01-28T04:02:01;101140.69;;;1.77;91.53
7200;BME280;3641;49.082;8.200;2023-01-28T04:04:29;101146.06;;;1.90;90.89
7200;BME280;3641;49.082;8.200;2023-01-28T04:06:56;101147.38;;;1.84;91.27
7200;BME280;3641;49.082;8.200;2023-01-28T04:09:23;101143.16;;;1.80;91.24
7200;BME280;3641;49.082;8.200;2023-01-28T04:11:50;101144.56;;;1.86;91.19
7200;BME280;3641;49.082;8.200;2023-01-28T04:14:17;101152.44;;;1.89;91.23
7200;BME280;3641;49.082;8.200;2023-01-28T04:16:43;101153.41;;;1.88;90.82
7200;BME280;3641;49.082;8.200;2023-01-28T04:19:10;101149.97;;;1.73;91.79
7200;BME280;3641;49.082;8.200;2023-01-28T04:21:39;101155.25;;;1.61;92.29
7200;BME280;3641;49.082;8.200;2023-01-28T04:24:06;101156.50;;;1.94;89.91
7200;BME280;3641;49.082;8.200;2023-01-28T04:26:33;101160.28;;;1.92;90.46
7200;BME280;3641;49.082;8.200;2023-01-28T04:28:59;101168.25;;;1.93;90.51
7200;BME280;3641;49.082;8.200;2023-01-28T04:31:25;101171.38;;;1.87;90.64
7200;BME280;3641;49.082;8.200;2023-01-28T04:33:52;101166.53;;;1.79;91.25
7200;BME280;3641;49.082;8.200;2023-01-28T04:36:18;101165.56;;;1.93;90.45
7200;BME280;3641;49.082;8.200;2023-01-28T04:38:46;101163.50;;;1.97;89.76
7200;BME280;3641;49.082;8.200;2023-01-28T04:41:13;101163.84;;;1.92;90.36
7200;BME280;3641;49.082;8.200;2023-01-28T04:43:39;101170.97;;;1.80;90.78
7200;BME280;3641;49.082;8.200;2023-01-28T04:46:06;101167.81;;;1.87;90.66
7200;BME280;3641;49.082;8.200;2023-01-28T04:48:33;101168.91;;;1.84;90.09
7200;BME280;3641;49.082;8.200;2023-01-28T04:51:00;101165.22;;;1.72;90.91
7200;BME280;3641;49.082;8.200;2023-01-28T04:53:27;101163.31;;;1.74;91.06
7200;BME280;3641;49.082;8.200;2023-01-28T04:55:55;101160.28;;;1.92;90.12
7200;BME280;3641;49.082;8.200;2023-01-28T04:58:22;101168.03;;;1.96;89.43
7200;BME280;3641;49.082;8.200;2023-01-28T05:00:53;101173.34;;;1.85;89.91
7200;BME280;3641;49.082;8.200;2023-01-28T05:03:19;101169.97;;;1.81;89.76
7200;BME280;3641;49.082;8.200;2023-01-28T05:05:46;101170.97;;;1.93;89.66
7200;BME280;3641;49.082;8.200;2023-01-28T05:08:12;101181.41;;;1.85;90.09
7200;BME280;3641;49.082;8.200;2023-01-28T05:10:38;101175.91;;;1.99;89.50
7200;BME280;3641;49.082;8.200;2023-01-28T05:13:06;101181.84;;;1.79;89.87
7200;BME280;3641;49.082;8.200;2023-01-28T05:15:33;101172.25;;;1.88;90.09
7200;BME280;3641;49.082;8.200;2023-01-28T05:18:00;101179.47;;;1.87;89.68
7200;BME280;3641;49.082;8.200;2023-01-28T05:20:26;101177.09;;;1.83;89.83
7200;BME280;3641;49.082;8.200;2023-01-28T05:22:53;101174.50;;;1.81;89.76
7200;BME280;3641;49.082;8.200;2023-01-28T05:25:20;101186.44;;;1.90;89.72
7200;BME280;3641;49.082;8.200;2023-01-28T05:27:48;101176.56;;;1.90;89.42
7200;BME280;3641;49.082;8.200;2023-01-28T05:30:16;101184.31;;;1.82;89.58
7200;BME280;3641;49.082;8.200;2023-01-28T05:32:43;101188.50;;;1.86;89.52
7200;BME280;3641;49.082;8.200;2023-01-28T05:35:09;101181.06;;;1.90;89.23
7200;BME280;3641;49.082;8.200;2023-01-28T05:37:36;101184.53;;;1.79;90.01
7200;BME280;3641;49.082;8.200;2023-01-28T05:40:03;101195.19;;;1.68;90.02
7200;BME280;3641;49.082;8.200;2023-01-28T05:42:30;101190.88;;;1.65;90.73
7200;BME280;3641;49.082;8.200;2023-01-28T05:44:56;101200.69;;;1.79;90.60
7200;BME280;3641;49.082;8.200;2023-01-28T05:47:24;101203.59;;;1.76;90.49
7200;BME280;3641;49.082;8.200;2023-01-28T05:49:50;101209.06;;;1.61;90.92
7200;BME280;3641;49.082;8.200;2023-01-28T05:52:17;101206.38;;;1.61;90.53
7200;BME280;3641;49.082;8.200;2023-01-28T05:54:43;101208.75;;;1.79;90.05
7200;BME280;3641;49.082;8.200;2023-01-28T05:57:10;101219.94;;;1.86;90.33
7200;BME280;3641;49.082;8.200;2023-01-28T05:59:36;101215.94;;;1.91;89.78
7200;BME280;3641;49.082;8.200;2023-01-28T06:02:03;101220.69;;;1.88;90.80
7200;BME280;3641;49.082;8.200;2023-01-28T06:04:30;101219.09;;;1.85;90.09
7200;BME280;3641;49.082;8.200;2023-01-28T06:06:57;101221.66;;;1.87;90.05
7200;BME280;3641;49.082;8.200;2023-01-28T06:09:23;101219.63;;;1.90;89.68
7200;BME280;3641;49.082;8.200;2023-01-28T06:11:50;101233.81;;;1.67;90.28
7200;BME280;3641;49.082;8.200;2023-01-28T06:14:16;101233.19;;;1.76;90.57
7200;BME280;3641;49.082;8.200;2023-01-28T06:16:43;101240.50;;;1.87;90.24
7200;BME280;3641;49.082;8.200;2023-01-28T06:19:09;101234.78;;;1.66;90.55
7200;BME280;3641;49.082;8.200;2023-01-28T06:21:37;101236.09;;;1.73;90.28
7200;BME280;3641;49.082;8.200;2023-01-28T06:24:04;101242.88;;;1.78;90.75
7200;BME280;3641;49.082;8.200;2023-01-28T06:26:30;101241.78;;;1.68;90.47
7200;BME280;3641;49.082;8.200;2023-01-28T06:28:57;101257.94;;;1.68;90.69
7200;BME280;3641;49.082;8.200;2023-01-28T06:31:23;101247.94;;;1.70;90.28
7200;BME280;3641;49.082;8.200;2023-01-28T06:33:50;101253.72;;;1.64;90.29
7200;BME280;3641;49.082;8.200;2023-01-28T06:36:16;101255.78;;;1.73;90.14
7200;BME280;3641;49.082;8.200;2023-01-28T06:38:44;101255.59;;;1.76;90.03
7200;BME280;3641;49.082;8.200;2023-01-28T06:41:11;101261.16;;;1.73;89.93
7200;BME280;3641;49.082;8.200;2023-01-28T06:43:37;101265.59;;;1.61;89.92
7200;BME280;3641;49.082;8.200;2023-01-28T06:46:04;101261.06;;;1.62;89.65
7200;BME280;3641;49.082;8.200;2023-01-28T06:48:31;101269.22;;;1.60;90.33
7200;BME280;3641;49.082;8.200;2023-01-28T06:50:57;101273.13;;;1.69;89.76
7200;BME280;3641;49.082;8.200;2023-01-28T06:53:24;101275.28;;;1.77;89.79
7200;BME280;3641;49.082;8.200;2023-01-28T06:55:52;101275.16;;;1.66;89.87
7200;BME280;3641;49.082;8.200;2023-01-28T06:58:18;101280.00;;;1.60;90.05
7200;BME280;3641;49.082;8.200;2023-01-28T07:00:45;101286.81;;;1.79;89.17
7200;BME280;3641;49.082;8.200;2023-01-28T07:03:11;101282.88;;;1.57;89.73
7200;BME280;3641;49.082;8.200;2023-01-28T07:05:38;101293.44;;;1.60;89.48
7200;BME280;3641;49.082;8.200;2023-01-28T07:08:04;101295.09;;;1.63;89.77
7200;BME280;3641;49.082;8.200;2023-01-28T07:10:31;101297.66;;;1.65;89.86
7200;BME280;3641;49.082;8.200;2023-01-28T07:12:58;101296.91;;;1.75;89.59
7200;BME280;3641;49.082;8.200;2023-01-28T07:15:25;101292.00;;;1.82;88.92
7200;BME280;3641;49.082;8.200;2023-01-28T07:17:51;101296.44;;;1.56;88.85
7200;BME280;3641;49.082;8.200;2023-01-28T07:20:18;101302.47;;;1.59;89.96
7200;BME280;3641;49.082;8.200;2023-01-28T07:22:45;101302.69;;;1.56;89.91
7200;BME280;3641;49.082;8.200;2023-01-28T07:25:13;101302.28;;;1.62;89.71
7200;BME280;3641;49.082;8.200;2023-01-28T07:27:45;101297.13;;;1.72;89.39
7200;BME280;3641;49.082;8.200;2023-01-28T07:30:17;101288.28;;;1.57;90.06
7200;BME280;3641;49.082;8.200;2023-01-28T07:32:44;101300.31;;;1.52;90.23
7200;BME280;3641;49.082;8.200;2023-01-28T07:35:11;101296.09;;;1.48;90.35
7200;BME280;3641;49.082;8.200;2023-01-28T07:37:38;101300.53;;;1.49;90.66
7200;BME280;3641;49.082;8.200;2023-01-28T07:40:06;101303.25;;;1.61;89.89
7200;BME280;3641;49.082;8.200;2023-01-28T07:42:32;101305.59;;;1.53;90.33
7200;BME280;3641;49.082;8.200;2023-01-28T07:44:59;101308.66;;;1.74;89.39
7200;BME280;3641;49.082;8.200;2023-01-28T07:47:27;101306.38;;;1.68;89.99
7200;BME280;3641;49.082;8.200;2023-01-28T07:49:53;101307.78;;;1.74;90.20
7200;BME280;3641;49.082;8.200;2023-01-28T07:52:20;101313.06;;;1.75;89.56
7200;BME280;3641;49.082;8.200;2023-01-28T07:54:46;101308.66;;;1.74;89.78
7200;BME280;3641;49.082;8.200;2023-01-28T07:57:12;101320.19;;;1.76;89.87
7200;BME280;3641;49.082;8.200;2023-01-28T07:59:39;101317.63;;;1.88;89.26
7200;BME280;3641;49.082;8.200;2023-01-28T08:02:09;101324.44;;;1.93;89.27
7200;BME280;3641;49.082;8.200;2023-01-28T08:04:40;101320.22;;;1.89;89.03
7200;BME280;3641;49.082;8.200;2023-01-28T08:07:07;101327.09;;;1.80;89.37
7200;BME280;3641;49.082;8.200;2023-01-28T08:09:33;101322.31;;;1.71;89.99
7200;BME280;3641;49.082;8.200;2023-01-28T08:12:00;101328.63;;;1.57;90.45
7200;BME280;3641;49.082;8.200;2023-01-28T08:14:27;101323.91;;;1.61;90.27
7200;BME280;3641;49.082;8.200;2023-01-28T08:16:54;101332.34;;;1.69;90.16
7200;BME280;3641;49.082;8.200;2023-01-28T08:19:20;101335.59;;;1.74;90.03
7200;BME280;3641;49.082;8.200;2023-01-28T08:21:48;101338.03;;;1.65;90.50
7200;BME280;3641;49.082;8.200;2023-01-28T08:24:15;101332.38;;;1.82;89.52
7200;BME280;3641;49.082;8.200;2023-01-28T08:26:42;101339.25;;;1.86;89.55
7200;BME280;3641;49.082;8.200;2023-01-28T08:29:09;101338.84;;;1.92;89.22
7200;BME280;3641;49.082;8.200;2023-01-28T08:31:35;101337.50;;;1.72;90.03
7200;BME280;3641;49.082;8.200;2023-01-28T08:34:01;101343.69;;;1.87;89.73
7200;BME280;3641;49.082;8.200;2023-01-28T08:36:28;101348.97;;;1.89;89.51
7200;BME280;3641;49.082;8.200;2023-01-28T08:38:56;101344.53;;;1.88;89.01
7200;BME280;3641;49.082;8.200;2023-01-28T08:41:22;101353.13;;;1.80;90.14
7200;BME280;3641;49.082;8.200;2023-01-28T08:43:49;101345.66;;;1.71;89.70
7200;BME280;3641;49.082;8.200;2023-01-28T08:46:15;101338.28;;;1.74;90.12
7200;BME280;3641;49.082;8.200;2023-01-28T08:48:42;101344.34;;;1.91;89.04
7200;BME280;3641;49.082;8.200;2023-01-28T08:51:08;101342.47;;;1.78;89.38
7200;BME280;3641;49.082;8.200;2023-01-28T08:53:35;101338.09;;;1.90;89.35
7200;BME280;3641;49.082;8.200;2023-01-28T08:56:03;101339.34;;;1.85;89.17
7200;BME280;3641;49.082;8.200;2023-01-28T08:58:29;101348.97;;;1.89;89.17
7200;BME280;3641;49.082;8.200;2023-01-28T09:00:56;101334.19;;;1.81;89.20
7200;BME280;3641;49.082;8.200;2023-01-28T09:03:22;101348.75;;;1.92;88.69
7200;BME280;3641;49.082;8.200;2023-01-28T09:05:49;101345.38;;;1.88;88.66
7200;BME280;3641;49.082;8.200;2023-01-28T09:08:15;101349.91;;;1.88;88.52
7200;BME280;3641;49.082;8.200;2023-01-28T09:10:42;101347.78;;;1.93;88.36
7200;BME280;3641;49.082;8.200;2023-01-28T09:13:12;101348.88;;;2.03;88.46
7200;BME280;3641;49.082;8.200;2023-01-28T09:15:39;101353.53;;;2.01;88.24
7200;BME280;3641;49.082;8.200;2023-01-28T09:18:05;101357.59;;;2.07;87.83
7200;BME280;3641;49.082;8.200;2023-01-28T09:20:32;101355.97;;;2.04;87.88
7200;BME280;3641;49.082;8.200;2023-01-28T09:22:59;101357.47;;;1.95;88.13
7200;BME280;3641;49.082;8.200;2023-01-28T09:25:26;101357.03;;;1.89;87.71
7200;BME280;3641;49.082;8.200;2023-01-28T09:27:52;101363.94;;;2.06;87.49
7200;BME280;3641;49.082;8.200;2023-01-28T09:30:20;101361.59;;;2.01;87.56
7200;BME280;3641;49.082;8.200;2023-01-28T09:32:49;101366.31;;;1.97;87.18
7200;BME280;3641;49.082;8.200;2023-01-28T09:35:15;101365.03;;;2.03;87.30
7200;BME280;3641;49.082;8.200;2023-01-28T09:37:43;101363.66;;;2.23;86.88
7200;BME280;3641;49.082;8.200;2023-01-28T09:40:12;101367.66;;;2.30;86.67
7200;BME280;3641;49.082;8.200;2023-01-28T09:42:49;101372.84;;;2.33;86.51
7200;BME280;3641;49.082;8.200;2023-01-28T09:45:24;101376.97;;;1.99;85.61
7200;BME280;3641;49.082;8.200;2023-01-28T09:47:55;101380.47;;;2.14;86.89
7200;BME280;3641;49.082;8.200;2023-01-28T09:50:27;101382.19;;;2.28;86.64
7200;BME280;3641;49.082;8.200;2023-01-28T09:53:01;101393.25;;;2.10;86.02
7200;BME280;3641;49.082;8.200;2023-01-28T09:55:32;101390.53;;;1.97;86.21
7200;BME280;3641;49.082;8.200;2023-01-28T09:58:00;101398.97;;;2.06;86.46
7200;BME280;3641;49.082;8.200;2023-01-28T10:00:35;101396.75;;;2.25;86.54
7200;BME280;3641;49.082;8.200;2023-01-28T10:03:27;101400.44;;;2.37;86.05
7200;BME280;3641;49.082;8.200;2023-01-28T10:06:07;101398.47;;;2.26;86.48
7200;BME280;3641;49.082;8.200;2023-01-28T10:08:59;101395.41;;;2.05;86.41
7200;BME280;3641;49.082;8.200;2023-01-28T10:11:39;101392.06;;;2.02;86.44
7200;BME280;3641;49.082;8.200;2023-01-28T10:14:12;101393.47;;;2.07;86.80
7200;BME280;3641;49.082;8.200;2023-01-28T10:16:48;101393.56;;;2.06;86.11
7200;BME280;3641;49.082;8.200;2023-01-28T10:19:19;101386.84;;;2.26;86.79
7200;BME280;3641;49.082;8.200;2023-01-28T10:21:51;101375.09;;;2.27;86.48
7200;BME280;3641;49.082;8.200;2023-01-28T10:24:24;101378.13;;;2.35;86.57
7200;BME280;3641;49.082;8.200;2023-01-28T10:26:55;101385.31;;;2.22;86.12
7200;BME280;3641;49.082;8.200;2023-01-28T10:29:24;101389.41;;;2.14;86.90
7200;BME280;3641;49.082;8.200;2023-01-28T10:31:55;101388.22;;;2.18;86.22
7200;BME280;3641;49.082;8.200;2023-01-28T10:34:24;101380.81;;;2.22;86.71
7200;BME280;3641;49.082;8.200;2023-01-28T10:36:51;101394.56;;;2.05;86.36
7200;BME280;3641;49.082;8.200;2023-01-28T10:39:20;101384.94;;;2.00;85.82
7200;BME280;3641;49.082;8.200;2023-01-28T10:41:48;101395.16;;;2.35;86.28
7200;BME280;3641;49.082;8.200;2023-01-28T10:44:18;101379.41;;;2.29;86.02
7200;BME280;3641;49.082;8.200;2023-01-28T10:46:47;101387.03;;;2.10;86.12
7200;BME280;3641;49.082;8.200;2023-01-28T10:49:22;101392.66;;;2.32;86.11
7200;BME280;3641;49.082;8.200;2023-01-28T10:51:50;101389.97;;;2.45;85.79
7200;BME280;3641;49.082;8.200;2023-01-28T10:54:19;101387.47;;;2.29;85.51
7200;BME280;3641;49.082;8.200;2023-01-28T10:56:46;101394.47;;;2.19;85.41
7200;BME280;3641;49.082;8.200;2023-01-28T10:59:19;101396.09;;;2.22;85.18
7200;BME280;3641;49.082;8.200;2023-01-28T11:01:49;101389.97;;;2.32;85.73
7200;BME280;3641;49.082;8.200;2023-01-28T11:04:22;101393.19;;;2.38;86.00
7200;BME280;3641;49.082;8.200;2023-01-28T11:06:54;101396.97;;;2.35;85.48
7200;BME280;3641;49.082;8.200;2023-01-28T11:09:23;101395.69;;;2.41;85.70
7200;BME280;3641;49.082;8.200;2023-01-28T11:11:50;101395.97;;;2.23;84.59
7200;BME280;3641;49.082;8.200;2023-01-28T11:14:22;101400.81;;;2.18;84.18
7200;BME280;3641;49.082;8.200;2023-01-28T11:16:50;101400.28;;;2.13;84.12
7200;BME280;3641;49.082;8.200;2023-01-28T11:19:20;101395.44;;;2.18;84.19
7200;BME280;3641;49.082;8.200;2023-01-28T11:21:53;101399.56;;;2.24;83.68
7200;BME280;3641;49.082;8.200;2023-01-28T11:24:23;101396.88;;;2.24;83.87
7200;BME280;3641;49.082;8.200;2023-01-28T11:26:53;101397.09;;;2.33;84.81
7200;BME280;3641;49.082;8.200;2023-01-28T11:29:23;101401.72;;;2.31;84.47
7200;BME280;3641;49.082;8.200;2023-01-28T11:31:51;101397.63;;;2.39;84.55
7200;BME280;3641;49.082;8.200;2023-01-28T11:34:19;101395.88;;;2.38;83.73
7200;BME280;3641;49.082;8.200;2023-01-28T11:36:50;101388.91;;;2.48;84.45
7200;BME280;3641;49.082;8.200;2023-01-28T11:39:19;101401.38;;;2.36;83.16
7200;BME280;3641;49.082;8.200;2023-01-28T11:41:46;101396.16;;;2.47;84.35
7200;BME280;3641;49.082;8.200;2023-01-28T11:44:16;101401.84;;;2.30;83.36
7200;BME280;3641;49.082;8.200;2023-01-28T11:47:05;101393.28;;;2.23;83.03
7200;BME280;3641;49.082;8.200;2023-01-28T11:49:46;101401.84;;;2.30;83.72
7200;BME280;3641;49.082;8.200;2023-01-28T11:52:22;101404.06;;;2.23;83.69
7200;BME280;3641;49.082;8.200;2023-01-28T11:54:58;101402.16;;;2.38;82.54
7200;BME280;3641;49.082;8.200;2023-01-28T11:57:34;101408.09;;;2.43;83.49
7200;BME280;3641;49.082;8.200;2023-01-28T12:00:19;101408.41;;;2.39;83.48
7200;BME280;3641;49.082;8.200;2023-01-28T12:02:52;101398.69;;;2.49;84.06
7200;BME280;3641;49.082;8.200;2023-01-28T12:05:34;101402.16;;;2.38;83.82
7200;BME280;3641;49.082;8.200;2023-01-28T12:08:09;101386.63;;;2.54;84.34
7200;BME280;3641;49.082;8.200;2023-01-28T12:10:43;101383.84;;;2.56;84.36
7200;BME280;3641;49.082;8.200;2023-01-28T12:13:27;101383.41;;;2.62;83.99
7200;BME280;3641;49.082;8.200;2023-01-28T12:16:29;101385.47;;;2.59;83.90
7200;BME280;3641;49.082;8.200;2023-01-28T12:19:19;101386.75;;;2.53;83.50
7200;BME280;3641;49.082;8.200;2023-01-28T12:24:54;101379.31;;;2.57;82.87
7200;BME280;3641;49.082;8.200;2023-01-28T12:27:31;101383.31;;;2.64;82.96
7200;BME280;3641;49.082;8.200;2023-01-28T12:30:05;101379.88;;;2.62;82.96
7200;BME280;3641;49.082;8.200;2023-01-28T12:32:45;101378.66;;;2.66;83.57
7200;BME280;3641;49.082;8.200;2023-01-28T12:35:34;101375.22;;;2.64;82.50
7200;BME280;3641;49.082;8.200;2023-01-28T12:38:13;101376.94;;;2.52;81.21
7200;BME280;3641;49.082;8.200;2023-01-28T12:40:49;101375.75;;;2.56;82.93
7200;BME280;3641;49.082;8.200;2023-01-28T12:43:23;101374.38;;;2.63;83.12
7200;BME280;3641;49.082;8.200;2023-01-28T12:45:54;101367.56;;;2.70;82.85
7200;BME280;3641;49.082;8.200;2023-01-28T12:48:26;101372.84;;;2.72;82.62
7200;BME280;3641;49.082;8.200;2023-01-28T12:50:58;101367.88;;;2.53;81.03
7200;BME280;3641;49.082;8.200;2023-01-28T12:53:32;101367.56;;;2.58;80.83
7200;BME280;3641;49.082;8.200;2023-01-28T12:56:07;101365.72;;;2.58;82.11
7200;BME280;3641;49.082;8.200;2023-01-28T12:58:43;101371.31;;;2.55;80.87
7200;BME280;3641;49.082;8.200;2023-01-28T13:01:15;101366.91;;;2.28;79.16
7200;BME280;3641;49.082;8.200;2023-01-28T13:03:48;101358.72;;;2.43;80.96
7200;BME280;3641;49.082;8.200;2023-01-28T13:06:23;101361.63;;;2.65;81.49
7200;BME280;3641;49.082;8.200;2023-01-28T13:08:55;101358.41;;;2.60;79.81
7200;BME280;3641;49.082;8.200;2023-01-28T13:11:30;101362.91;;;2.72;81.16
7200;BME280;3641;49.082;8.200;2023-01-28T13:13:58;101352.13;;;2.47;79.58
7200;BME280;3641;49.082;8.200;2023-01-28T13:16:25;101361.53;;;2.41;78.56
7200;BME280;3641;49.082;8.200;2023-01-28T13:18:51;101368.41;;;2.45;79.89
7200;BME280;3641;49.082;8.200;2023-01-28T13:21:29;101371.22;;;2.44;79.37
7200;BME280;3641;49.082;8.200;2023-01-28T13:24:19;101371.31;;;2.55;80.45
7200;BME280;3641;49.082;8.200;2023-01-28T13:26:48;101370.47;;;2.67;81.29
7200;BME280;3641;49.082;8.200;2023-01-28T13:29:21;101370.78;;;2.50;79.80
7200;BME280;3641;49.082;8.200;2023-01-28T13:31:54;101376.19;;;2.50;78.67
7200;BME280;3641;49.082;8.200;2023-01-28T13:34:31;101382.88;;;2.44;78.68
7200;BME280;3641;49.082;8.200;2023-01-28T13:37:02;101379.31;;;2.44;79.45
7200;BME280;3641;49.082;8.200;2023-01-28T13:39:33;101379.94;;;2.34;78.12
7200;BME280;3641;49.082;8.200;2023-01-28T13:42:22;101375.53;;;2.59;80.98
7200;BME280;3641;49.082;8.200;2023-01-28T13:44:49;101382.00;;;2.44;79.44